Stellar, Texas
Current Conditions -  °F | °C
As of 1:55 AM on Tuesday 21 Oct 2014 (Local Time) from K3T5 Reporting Station
Clear Clear  
Wind Chill: 62°   Ceiling: Unl
Heat Index: 62°   Visibility: 10mi
Dew Point: 61°   Wind: 0mph
Humidity: 96%   Direction: NA
Pressure: 30"   Gusts: NA
Location:  29.7805°N, 97.1131°W
Report Text: K3T5 210655Z AUTO 00000KT 10SM CLR 17/16 A3000 RMK AO2 T01670160
Loading
Personal Weather Stations






























Interactive Weather Map New forecast layout! Learn more

10-Day Weather Forecast

Advertisements
Track Severe Weather on mobile